Time;durP1;ratioP1;P1;durP2;ratioP2;P2;SDS_P1;SDS_P2;PMS_P1;PMS_P2;Temp;Humidity;BMP_temperature;BMP_pressure;BME280_temperature;BME280_humidity;BME280_pressure;Samples;Min_cycle;Max_cycle;Signal;HPM_P1;HPM_P2
2022/12/25 00:01:32;;;;;;;1.40;1.40;;;18.10;66.50;;;;;;5065781;27;43369;-76
2022/12/25 00:04:01;;;;;;;1.10;1.10;;;18.10;66.70;;;;;;5087163;27;43972;-74
2022/12/25 00:06:29;;;;;;;1.40;1.40;;;18.00;66.70;;;;;;5084405;27;43586;-74
2022/12/25 00:08:57;;;;;;;1.50;1.50;;;18.00;66.90;;;;;;5084500;27;43462;-73
2022/12/25 00:11:25;;;;;;;1.20;1.20;;;18.00;66.90;;;;;;5065723;27;43593;-75
2022/12/25 00:13:53;;;;;;;1.20;1.20;;;18.00;66.90;;;;;;5083991;27;44089;-77
2022/12/25 00:16:22;;;;;;;1.20;1.20;;;18.10;67.00;;;;;;5082130;27;45182;-75
2022/12/25 00:18:51;;;;;;;1.30;1.30;;;18.00;67.60;;;;;;5083876;27;43391;-76
2022/12/25 00:21:20;;;;;;;1.40;1.40;;;18.00;67.00;;;;;;5083620;27;43534;-77
2022/12/25 00:23:48;;;;;;;1.40;1.40;;;18.00;67.20;;;;;;5084011;27;43895;-75
2022/12/25 00:26:17;;;;;;;1.17;1.17;;;18.00;67.20;;;;;;5082459;27;44219;-76
2022/12/25 00:28:45;;;;;;;1.33;1.33;;;18.00;67.10;;;;;;5080211;27;44070;-75
2022/12/25 00:31:14;;;;;;;1.27;1.27;;;18.00;67.00;;;;;;5085514;27;43473;-76
2022/12/25 00:33:42;;;;;;;1.30;1.30;;;18.00;67.00;;;;;;5084892;27;43867;-77
2022/12/25 00:36:11;;;;;;;1.40;1.40;;;18.00;67.10;;;;;;5082441;27;43542;-77
2022/12/25 00:38:40;;;;;;;1.40;1.40;;;17.90;67.30;;;;;;5067196;27;43791;-77
2022/12/25 00:41:09;;;;;;;1.30;1.30;;;18.00;67.30;;;;;;5082807;27;43552;-73
2022/12/25 00:43:37;;;;;;;1.17;1.17;;;18.10;66.90;;;;;;5083299;27;43959;-76
2022/12/25 00:46:05;;;;;;;1.43;1.43;;;18.30;66.60;;;;;;5087331;27;43414;-77
2022/12/25 00:48:34;;;;;;;1.20;1.20;;;18.30;66.10;;;;;;5088946;27;43415;-77
2022/12/25 00:51:03;;;;;;;1.30;1.30;;;18.30;66.00;;;;;;5067328;28;43647;-76
2022/12/25 00:53:31;;;;;;;1.10;1.10;;;18.30;66.40;;;;;;5085530;28;43904;-76
2022/12/25 00:56:01;;;;;;;1.43;1.43;;;18.20;66.30;;;;;;5086071;27;43535;-75
2022/12/25 00:58:30;;;;;;;1.20;1.20;;;18.20;66.20;;;;;;5089485;28;43422;-78
2022/12/25 01:00:58;;;;;;;1.30;1.30;;;18.20;66.30;;;;;;5070934;28;43547;-76
2022/12/25 01:03:26;;;;;;;1.30;1.30;;;18.20;66.40;;;;;;5086219;28;44118;-77
2022/12/25 01:05:55;;;;;;;1.17;1.17;;;18.10;66.50;;;;;;5089375;28;43449;-76
2022/12/25 01:08:23;;;;;;;1.07;1.07;;;18.10;66.80;;;;;;5089482;28;43431;-77
2022/12/25 01:10:54;;;;;;;1.40;1.40;;;18.10;66.80;;;;;;5070666;28;43508;-77
2022/12/25 01:13:23;;;;;;;1.20;1.20;;;18.10;66.70;;;;;;5088975;28;43603;-77
2022/12/25 01:15:53;;;;;;;1.10;1.10;;;18.10;66.80;;;;;;5070170;28;44334;-77
2022/12/25 01:18:21;;;;;;;1.17;1.17;;;18.00;66.80;;;;;;5069659;28;43400;-77
2022/12/25 01:20:49;;;;;;;1.10;1.10;;;18.00;66.90;;;;;;5088532;28;43419;-75
2022/12/25 01:23:17;;;;;;;1.20;1.20;;;18.00;67.20;;;;;;5088890;28;43840;-77
2022/12/25 01:25:45;;;;;;;1.10;1.10;;;18.00;67.00;;;;;;5088707;28;43715;-74
2022/12/25 01:28:13;;;;;;;1.10;1.10;;;18.00;66.90;;;;;;5089008;28;43504;-78
2022/12/25 01:30:48;;;;;;;1.13;1.13;;;18.00;66.90;;;;;;5088511;28;43451;-77
2022/12/25 01:33:16;;;;;;;1.30;1.30;;;18.00;67.00;;;;;;5088412;28;43937;-76
2022/12/25 01:35:44;;;;;;;1.10;1.10;;;18.00;67.20;;;;;;5069991;28;44984;-75
2022/12/25 01:38:12;;;;;;;1.20;1.20;;;17.90;67.20;;;;;;5087620;28;44109;-77
2022/12/25 01:40:40;;;;;;;0.97;0.97;;;18.00;67.20;;;;;;5087856;28;43516;-78
2022/12/25 01:43:16;;;;;;;1.20;1.20;;;18.10;66.70;;;;;;5085326;28;44423;-76
2022/12/25 01:45:47;;;;;;;1.00;1.00;;;18.20;66.30;;;;;;5087308;28;43351;-77
2022/12/25 01:48:17;;;;;;;1.00;1.00;;;18.20;66.10;;;;;;5088676;28;43995;-76
2022/12/25 01:50:47;;;;;;;1.20;1.20;;;18.20;66.20;;;;;;5088163;28;44228;-77
2022/12/25 01:53:15;;;;;;;1.00;1.00;;;18.20;66.50;;;;;;5086143;28;43909;-76
2022/12/25 01:55:43;;;;;;;1.00;1.00;;;18.20;66.30;;;;;;5084527;28;43521;-77
2022/12/25 01:58:11;;;;;;;1.20;1.20;;;18.20;66.40;;;;;;5083693;28;43391;-76
2022/12/25 02:00:39;;;;;;;1.10;1.10;;;18.10;66.40;;;;;;5086645;28;43426;-72
2022/12/25 02:03:07;;;;;;;1.10;1.10;;;18.10;66.50;;;;;;5084910;28;43958;-72
2022/12/25 02:05:36;;;;;;;1.10;1.10;;;18.10;66.70;;;;;;5065812;28;44598;-72
2022/12/25 02:08:07;;;;;;;1.00;1.00;;;18.00;66.90;;;;;;5085073;27;43463;-73
2022/12/25 02:10:35;;;;;;;1.23;1.23;;;18.00;66.70;;;;;;5086634;28;43415;-72
2022/12/25 02:13:03;;;;;;;1.07;1.07;;;18.00;66.70;;;;;;5070851;28;45886;-72
2022/12/25 02:15:35;;;;;;;1.20;1.20;;;18.00;66.80;;;;;;5078343;28;43536;-71
2022/12/25 02:18:05;;;;;;;1.10;1.10;;;18.00;67.60;;;;;;5079096;28;43951;-73
2022/12/25 02:20:47;;;;;;;1.07;1.07;;;18.00;67.10;;;;;;5056179;28;43614;-72
2022/12/25 02:23:45;;;;;;;1.10;1.10;;;18.00;67.20;;;;;;5083116;28;43978;-72
2022/12/25 02:26:22;;;;;;;1.10;1.10;;;18.10;66.70;;;;;;5058922;28;44665;-72
2022/12/25 02:28:53;;;;;;;1.30;1.30;;;18.20;66.40;;;;;;5079530;28;43484;-73
2022/12/25 02:31:26;;;;;;;1.20;1.20;;;18.20;66.20;;;;;;5083872;27;44161;-71
2022/12/25 02:34:03;;;;;;;1.10;1.10;;;18.20;66.30;;;;;;5084099;28;43624;-72
2022/12/25 02:36:34;;;;;;;1.20;1.20;;;18.20;66.50;;;;;;5080889;28;43540;-71
2022/12/25 02:41:47;;;;;;;1.10;1.10;;;18.10;66.40;;;;;;5079925;28;43471;-72
2022/12/25 03:06:45;;;;;;;1.00;1.00;;;17.90;67.20;;;;;;5084144;28;43844;-72
2022/12/25 03:12:02;;;;;;;0.90;0.90;;;18.10;66.60;;;;;;5078250;28;43476;-72
2022/12/25 03:17:17;;;;;;;1.10;1.10;;;18.20;66.40;;;;;;5081884;28;44000;-73
2022/12/25 03:28:02;;;;;;;1.00;1.00;;;18.10;66.40;;;;;;5078008;28;43841;-71
2022/12/25 03:33:24;;;;;;;0.93;0.93;;;18.00;66.70;;;;;;5076491;28;43425;-71
2022/12/25 03:36:13;;;;;;;1.00;1.00;;;18.00;67.00;;;;;;5084995;28;43565;-73
2022/12/25 03:47:31;;;;;;;0.90;0.90;;;18.00;67.00;;;;;;5082325;28;43465;-72
2022/12/25 04:37:03;;;;;;;1.37;1.37;;;17.90;67.20;;;;;;5082082;28;44489;-71
2022/12/25 04:39:32;;;;;;;1.43;1.40;;;18.00;67.10;;;;;;5082838;28;43546;-71
2022/12/25 04:42:00;;;;;;;1.40;1.40;;;18.10;66.70;;;;;;5085768;28;43509;-72
2022/12/25 04:44:28;;;;;;;1.47;1.40;;;18.10;66.50;;;;;;5085533;28;43943;-71
2022/12/25 04:46:56;;;;;;;1.50;1.40;;;18.10;66.50;;;;;;5086281;28;44110;-73
2022/12/25 04:49:24;;;;;;;3.53;2.50;;;18.10;66.60;;;;;;5063011;28;43443;-71
2022/12/25 04:51:52;;;;;;;3.03;2.27;;;18.00;66.80;;;;;;5069953;28;43524;-71
2022/12/25 04:54:20;;;;;;;2.43;2.23;;;18.10;66.70;;;;;;5086596;28;43769;-71
2022/12/25 04:56:49;;;;;;;2.53;2.33;;;18.10;66.70;;;;;;5081815;28;43574;-71
2022/12/25 04:59:17;;;;;;;2.83;2.40;;;18.00;66.60;;;;;;5061539;28;43531;-72
2022/12/25 05:01:45;;;;;;;4.03;2.53;;;18.00;66.70;;;;;;5082732;28;43520;-71
2022/12/25 05:04:13;;;;;;;5.07;3.50;;;18.00;66.90;;;;;;5084747;27;43853;-72
2022/12/25 05:06:41;;;;;;;7.47;3.63;;;17.90;67.10;;;;;;5068694;28;43561;-71
2022/12/25 05:09:09;;;;;;;5.10;3.27;;;18.00;67.00;;;;;;5083924;28;43442;-71
2022/12/25 05:11:37;;;;;;;4.97;3.30;;;18.00;66.90;;;;;;5065600;28;43539;-70
2022/12/25 05:14:06;;;;;;;5.27;3.40;;;18.00;67.00;;;;;;5065638;28;45669;-72
2022/12/25 05:16:34;;;;;;;4.27;3.20;;;17.90;67.00;;;;;;5085222;28;43502;-72
2022/12/25 05:19:02;;;;;;;7.30;3.93;;;17.90;67.00;;;;;;5084650;28;44230;-72
2022/12/25 05:21:30;;;;;;;6.80;4.00;;;17.90;67.30;;;;;;5086702;28;44154;-71
2022/12/25 05:23:58;;;;;;;8.70;4.07;;;18.00;67.30;;;;;;5066495;28;44148;-72
2022/12/25 05:26:27;;;;;;;7.67;4.37;;;18.10;67.00;;;;;;5083929;28;43416;-72
2022/12/25 05:28:55;;;;;;;7.30;4.10;;;18.20;66.40;;;;;;5087055;28;43754;-70
2022/12/25 05:31:24;;;;;;;8.17;4.60;;;18.20;66.20;;;;;;5084386;28;43496;-72
2022/12/25 05:33:52;;;;;;;7.00;4.57;;;18.20;66.10;;;;;;5085141;28;44378;-72
2022/12/25 05:36:20;;;;;;;8.83;4.33;;;18.20;66.50;;;;;;5086046;28;43458;-71
2022/12/25 05:38:48;;;;;;;9.17;4.60;;;18.20;66.40;;;;;;5076240;28;43451;-72
2022/12/25 05:41:16;;;;;;;7.77;4.63;;;18.20;66.40;;;;;;5082390;28;43653;-71
2022/12/25 05:43:44;;;;;;;7.83;4.67;;;18.10;66.40;;;;;;5086520;27;43934;-71
2022/12/25 05:46:12;;;;;;;6.53;4.50;;;18.10;66.40;;;;;;5079338;28;43563;-72
2022/12/25 05:48:41;;;;;;;9.47;5.13;;;18.10;66.60;;;;;;5085350;28;43887;-71
2022/12/25 05:51:10;;;;;;;8.13;5.00;;;18.00;66.90;;;;;;5085803;28;43487;-71
2022/12/25 05:53:38;;;;;;;8.40;4.57;;;18.00;66.70;;;;;;5076816;28;43833;-72
2022/12/25 05:56:07;;;;;;;6.23;4.40;;;18.00;66.60;;;;;;5080794;27;44181;-73
2022/12/25 05:58:37;;;;;;;10.70;5.40;;;18.00;66.70;;;;;;5084979;28;44137;-71
2022/12/25 06:01:10;;;;;;;10.03;5.00;;;18.00;66.80;;;;;;5084278;28;44234;-71
2022/12/25 06:03:38;;;;;;;8.97;5.30;;;18.00;66.90;;;;;;5062236;28;45686;-71
2022/12/25 06:06:07;;;;;;;11.67;5.93;;;18.00;67.20;;;;;;5085926;28;43392;-71
2022/12/25 06:08:35;;;;;;;9.03;5.77;;;18.00;67.00;;;;;;5063054;28;44065;-71
2022/12/25 06:11:04;;;;;;;10.00;5.47;;;18.10;66.70;;;;;;5084092;28;43490;-71
2022/12/25 06:13:32;;;;;;;9.27;5.10;;;18.20;66.40;;;;;;5082407;28;43847;-71
2022/12/25 06:16:03;;;;;;;9.43;5.20;;;18.20;66.40;;;;;;5084367;28;43525;-71
2022/12/25 06:18:31;;;;;;;11.70;5.53;;;18.20;66.40;;;;;;5081515;28;43434;-72
2022/12/25 06:20:58;;;;;;;8.60;5.50;;;18.10;66.60;;;;;;5085860;28;43976;-71
2022/12/25 06:23:28;;;;;;;9.27;5.67;;;18.10;66.40;;;;;;5085729;28;43750;-72
2022/12/25 06:25:56;;;;;;;8.20;5.33;;;18.10;66.40;;;;;;5083283;28;43394;-72
2022/12/25 06:28:24;;;;;;;7.10;4.83;;;18.10;66.50;;;;;;5081356;28;43476;-70
2022/12/25 06:30:52;;;;;;;6.87;5.37;;;18.10;66.70;;;;;;5084739;28;43474;-72
2022/12/25 06:33:20;;;;;;;10.70;6.00;;;18.00;66.70;;;;;;5082385;28;43612;-72
2022/12/25 06:35:47;;;;;;;8.90;5.40;;;18.00;67.10;;;;;;5083724;28;43601;-71
2022/12/25 06:38:15;;;;;;;10.13;5.87;;;18.00;66.90;;;;;;5085778;28;44063;-71
2022/12/25 06:40:44;;;;;;;8.70;5.03;;;18.00;66.90;;;;;;5065107;28;43524;-71
2022/12/25 06:43:12;;;;;;;8.67;5.20;;;18.00;66.90;;;;;;5080806;28;43960;-71
2022/12/25 06:45:40;;;;;;;10.50;5.70;;;18.00;67.00;;;;;;5083858;27;43477;-72
2022/12/25 06:48:08;;;;;;;12.97;6.50;;;18.00;67.10;;;;;;5080052;28;43474;-70
2022/12/25 06:50:36;;;;;;;9.23;5.90;;;17.90;67.20;;;;;;5062254;28;43630;-70
2022/12/25 06:53:04;;;;;;;11.37;6.50;;;18.00;67.20;;;;;;5064337;28;45832;-71
2022/12/25 06:55:32;;;;;;;11.20;5.97;;;18.10;67.00;;;;;;5079839;28;43513;-71
2022/12/25 06:58:01;;;;;;;10.33;5.60;;;18.20;66.50;;;;;;5085273;28;44029;-70
2022/12/25 07:00:29;;;;;;;9.97;5.80;;;18.20;66.30;;;;;;5082641;28;44019;-72
2022/12/25 07:02:57;;;;;;;8.90;5.67;;;18.20;67.00;;;;;;5081309;28;43896;-72
2022/12/25 07:05:25;;;;;;;10.27;5.90;;;18.20;66.40;;;;;;5065895;28;44616;-71
2022/12/25 07:07:53;;;;;;;10.23;5.80;;;18.10;66.50;;;;;;5078845;28;43493;-71
2022/12/25 07:10:21;;;;;;;9.50;5.50;;;18.10;66.40;;;;;;5082386;28;43559;-71
2022/12/25 07:12:49;;;;;;;8.20;5.37;;;18.10;66.40;;;;;;5059880;28;45988;-70
2022/12/25 07:15:18;;;;;;;8.37;5.30;;;18.10;66.60;;;;;;5084398;28;43416;-71
2022/12/25 07:17:46;;;;;;;8.87;6.10;;;18.10;67.40;;;;;;5081953;28;43472;-70
2022/12/25 07:20:14;;;;;;;12.73;6.23;;;18.00;66.90;;;;;;5080256;28;44052;-71
2022/12/25 07:22:42;;;;;;;8.13;5.43;;;18.00;67.00;;;;;;5085156;28;43740;-72
2022/12/25 07:25:10;;;;;;;8.77;5.73;;;18.00;66.90;;;;;;5082073;28;43584;-72
2022/12/25 07:27:39;;;;;;;7.10;5.50;;;18.00;66.90;;;;;;5082125;28;43536;-72
2022/12/25 07:30:09;;;;;;;6.87;5.13;;;18.00;66.90;;;;;;5080126;28;43372;-72
2022/12/25 07:32:38;;;;;;;10.10;5.80;;;18.00;66.90;;;;;;5082173;28;43852;-72
2022/12/25 07:35:06;;;;;;;11.70;6.27;;;17.90;67.00;;;;;;5081829;28;43547;-71
2022/12/25 07:37:34;;;;;;;9.03;6.17;;;17.90;67.10;;;;;;5080721;28;43408;-73
2022/12/25 07:40:02;;;;;;;10.53;5.80;;;18.00;67.00;;;;;;5065635;28;43561;-72
2022/12/25 07:42:31;;;;;;;8.97;5.67;;;18.00;67.00;;;;;;5082354;28;43611;-71
2022/12/25 07:44:59;;;;;;;7.87;5.40;;;18.00;67.00;;;;;;5063404;28;45050;-73
2022/12/25 07:47:27;;;;;;;9.03;5.63;;;18.00;67.10;;;;;;5058882;28;43522;-70
2022/12/25 07:49:56;;;;;;;10.77;5.93;;;17.90;67.10;;;;;;5083523;28;43529;-72
2022/12/25 07:52:24;;;;;;;11.63;5.80;;;17.90;67.30;;;;;;5081546;28;43924;-71
2022/12/25 07:54:52;;;;;;;10.50;5.80;;;18.10;67.10;;;;;;5063450;28;44580;-72
2022/12/25 07:57:20;;;;;;;8.67;5.73;;;18.20;66.60;;;;;;5079679;28;43663;-72
2022/12/25 07:59:48;;;;;;;9.93;5.93;;;18.20;66.30;;;;;;5082444;28;44742;-72
2022/12/25 08:02:16;;;;;;;7.63;5.40;;;18.20;66.10;;;;;;5081266;28;43859;-72
2022/12/25 08:04:44;;;;;;;10.70;5.83;;;18.20;66.30;;;;;;5060731;27;44388;-71
2022/12/25 08:07:14;;;;;;;10.43;5.90;;;18.20;66.40;;;;;;5080493;28;43461;-71
2022/12/25 08:09:41;;;;;;;8.97;6.03;;;18.20;66.40;;;;;;5084820;28;43490;-71
2022/12/25 08:12:09;;;;;;;7.87;5.23;;;18.20;66.40;;;;;;5081825;28;43903;-71
2022/12/25 08:14:37;;;;;;;8.10;5.30;;;18.10;66.40;;;;;;5082148;28;43658;-71
2022/12/25 08:17:05;;;;;;;9.83;5.93;;;18.10;66.60;;;;;;5084783;28;43482;-71
2022/12/25 08:19:33;;;;;;;9.13;5.90;;;18.00;66.70;;;;;;5086483;27;43483;-71
2022/12/25 08:22:01;;;;;;;8.57;5.30;;;18.00;67.00;;;;;;5086220;27;43606;-72
2022/12/25 08:24:30;;;;;;;8.73;5.50;;;18.00;66.90;;;;;;5084576;28;43372;-72
2022/12/25 08:26:58;;;;;;;6.97;5.43;;;18.00;66.90;;;;;;5081947;27;43436;-71
2022/12/25 08:29:27;;;;;;;7.53;5.83;;;18.00;66.90;;;;;;5080843;27;44125;-74
2022/12/25 08:31:55;;;;;;;8.03;5.73;;;18.00;67.00;;;;;;5083857;27;43927;-71
2022/12/25 08:34:23;;;;;;;7.67;5.57;;;17.90;67.00;;;;;;5083631;27;43416;-71
2022/12/25 08:36:51;;;;;;;5.93;5.07;;;17.90;67.30;;;;;;5077712;27;43445;-71
2022/12/25 08:39:19;;;;;;;8.77;5.57;;;18.00;67.00;;;;;;5085401;28;43426;-72
2022/12/25 08:41:48;;;;;;;8.10;5.53;;;18.10;66.70;;;;;;5085869;28;43933;-71
2022/12/25 08:44:16;;;;;;;10.40;5.77;;;18.10;66.60;;;;;;5086422;28;44176;-71
2022/12/25 08:46:44;;;;;;;7.10;5.03;;;18.10;66.50;;;;;;5067733;28;43435;-71
2022/12/25 08:49:12;;;;;;;6.90;5.50;;;18.10;66.70;;;;;;5083841;28;43448;-72
2022/12/25 08:51:40;;;;;;;9.03;5.93;;;18.00;66.90;;;;;;5085782;28;43832;-71
2022/12/25 08:54:08;;;;;;;9.03;5.70;;;18.00;66.80;;;;;;5086278;28;43584;-72
2022/12/25 08:56:36;;;;;;;6.00;4.80;;;18.00;66.80;;;;;;5085805;28;44145;-71
2022/12/25 08:59:05;;;;;;;8.03;5.30;;;18.00;66.90;;;;;;5086402;28;43477;-72
2022/12/25 09:01:33;;;;;;;8.60;5.63;;;18.00;66.90;;;;;;5084893;28;43688;-71
2022/12/25 09:04:02;;;;;;;7.60;5.53;;;17.90;67.00;;;;;;5085122;28;43388;-70
2022/12/25 09:06:29;;;;;;;6.83;5.03;;;17.90;68.00;;;;;;5085953;28;43490;-72
2022/12/25 09:08:57;;;;;;;6.47;4.77;;;18.00;67.20;;;;;;5067719;28;43634;-71
2022/12/25 09:11:25;;;;;;;6.33;5.17;;;18.10;66.70;;;;;;5085933;28;44070;-72
2022/12/25 09:13:53;;;;;;;6.60;4.70;;;18.20;66.40;;;;;;5085687;28;43536;-71
2022/12/25 09:16:22;;;;;;;8.53;5.30;;;18.20;66.40;;;;;;5066401;27;43485;-71
2022/12/25 09:18:51;;;;;;;6.47;4.90;;;18.10;66.40;;;;;;5089204;28;44200;-71
2022/12/25 09:21:18;;;;;;;6.90;5.33;;;18.10;66.70;;;;;;5088918;28;43887;-70
2022/12/25 09:23:46;;;;;;;5.13;4.63;;;18.10;66.60;;;;;;5087659;27;44258;-71
2022/12/25 09:26:16;;;;;;;6.47;4.90;;;18.10;66.60;;;;;;5089068;28;43426;-70
2022/12/25 09:28:43;;;;;;;5.73;4.87;;;18.10;66.70;;;;;;5070627;28;43575;-71
2022/12/25 09:31:19;;;;;;;5.47;4.73;;;18.10;66.80;;;;;;5088176;28;44004;-71
2022/12/25 09:33:48;;;;;;;5.80;4.87;;;18.00;66.90;;;;;;5089007;28;43447;-71
2022/12/25 09:36:16;;;;;;;6.43;5.23;;;18.00;67.20;;;;;;5083009;28;43377;-72
2022/12/25 09:38:44;;;;;;;6.47;4.83;;;18.00;67.00;;;;;;5088709;28;43463;-72
2022/12/25 09:41:14;;;;;;;5.00;4.50;;;18.00;66.90;;;;;;5088452;28;43860;-71
2022/12/25 09:43:45;;;;;;;6.07;4.30;;;18.00;67.00;;;;;;5088722;28;43449;-72
2022/12/25 09:46:14;;;;;;;5.60;4.53;;;18.00;67.20;;;;;;5070160;28;43437;-72
2022/12/25 09:48:45;;;;;;;4.83;4.17;;;17.90;67.10;;;;;;5089391;28;43807;-72
2022/12/25 09:51:14;;;;;;;6.57;4.50;;;17.90;67.50;;;;;;5069857;28;45603;-72
2022/12/25 09:53:45;;;;;;;4.70;4.30;;;18.00;67.30;;;;;;5088144;28;43533;-72
2022/12/25 09:56:14;;;;;;;4.50;4.10;;;18.10;66.90;;;;;;5070363;28;43439;-70
2022/12/25 09:58:41;;;;;;;4.67;4.27;;;18.20;66.50;;;;;;5070134;28;43557;-71
2022/12/25 10:01:15;;;;;;;5.60;4.17;;;18.20;66.40;;;;;;5070189;28;46116;-72
2022/12/25 10:03:51;;;;;;;6.57;4.00;;;18.10;66.40;;;;;;5088358;28;43483;-70
2022/12/25 10:06:21;;;;;;;5.40;4.30;;;18.10;66.70;;;;;;5069908;28;43397;-71
2022/12/25 10:09:07;;;;;;;5.20;4.37;;;18.10;66.60;;;;;;5088961;28;43546;-71
2022/12/25 10:11:50;;;;;;;4.10;3.77;;;18.10;66.60;;;;;;5063378;28;44063;-71
2022/12/25 10:14:23;;;;;;;4.53;4.13;;;18.10;66.70;;;;;;5068034;28;44416;-72
2022/12/25 10:16:56;;;;;;;4.40;4.00;;;18.00;66.80;;;;;;5069194;28;43441;-72
2022/12/25 10:19:29;;;;;;;4.47;3.97;;;18.00;67.00;;;;;;5089050;28;43525;-71
2022/12/25 10:22:01;;;;;;;4.07;3.73;;;18.00;67.20;;;;;;5069692;28;45685;-71
2022/12/25 10:24:33;;;;;;;4.50;4.10;;;18.00;67.00;;;;;;5088240;28;43373;-71
2022/12/25 10:27:02;;;;;;;4.20;3.80;;;18.00;67.00;;;;;;5083537;28;43816;-74
2022/12/25 10:29:31;;;;;;;4.43;4.00;;;18.00;67.10;;;;;;5086378;28;43558;-71
2022/12/25 10:31:59;;;;;;;3.73;3.50;;;17.90;67.10;;;;;;5087883;28;43912;-71
2022/12/25 10:34:27;;;;;;;4.00;3.70;;;17.90;67.30;;;;;;5087854;28;43447;-72
2022/12/25 10:36:55;;;;;;;3.87;3.57;;;17.90;67.30;;;;;;5069926;28;44046;-70
2022/12/25 10:39:25;;;;;;;4.00;3.70;;;17.90;67.10;;;;;;5088125;28;43593;-71
2022/12/25 10:42:03;;;;;;;3.90;3.63;;;17.90;67.10;;;;;;5087713;28;43881;-72
2022/12/25 10:44:32;;;;;;;4.37;4.00;;;18.00;67.20;;;;;;5084167;28;43547;-70
2022/12/25 10:47:00;;;;;;;3.60;3.40;;;17.90;67.20;;;;;;5087792;28;44020;-71
2022/12/25 10:49:30;;;;;;;5.17;4.00;;;17.90;67.30;;;;;;5087938;28;43961;-73
2022/12/25 10:51:58;;;;;;;3.60;3.30;;;17.90;67.50;;;;;;5068953;28;44338;-72
2022/12/25 10:54:28;;;;;;;4.23;3.83;;;18.00;67.20;;;;;;5068963;28;44862;-70
2022/12/25 10:56:58;;;;;;;3.80;3.50;;;18.20;66.80;;;;;;5087844;28;43410;-73
2022/12/25 10:59:26;;;;;;;3.53;3.23;;;18.20;66.40;;;;;;5088238;28;43487;-72
2022/12/25 11:01:54;;;;;;;3.50;3.27;;;18.20;66.40;;;;;;5069075;28;45720;-71
2022/12/25 11:04:27;;;;;;;3.40;3.20;;;18.20;66.40;;;;;;5087876;28;43474;-70
2022/12/25 11:06:59;;;;;;;3.70;3.50;;;18.20;66.60;;;;;;5087824;28;43381;-71
2022/12/25 11:09:28;;;;;;;3.40;3.20;;;18.20;66.60;;;;;;5069908;27;43995;-71
2022/12/25 11:11:56;;;;;;;3.27;3.07;;;18.10;66.40;;;;;;5072195;27;45748;-71
2022/12/25 11:14:26;;;;;;;3.50;3.30;;;18.10;66.60;;;;;;5065262;28;44753;-71
2022/12/25 11:16:54;;;;;;;3.70;3.40;;;18.10;66.70;;;;;;5084499;27;43453;-70
2022/12/25 11:19:27;;;;;;;3.50;3.23;;;18.00;66.90;;;;;;5071210;28;44155;-71
2022/12/25 11:21:56;;;;;;;3.40;3.13;;;18.00;67.10;;;;;;5084084;27;43919;-72
2022/12/25 11:24:26;;;;;;;3.23;3.03;;;18.00;66.90;;;;;;5086571;27;43885;-71
2022/12/25 11:26:56;;;;;;;3.10;2.90;;;18.00;66.90;;;;;;5082954;27;43886;-70
2022/12/25 11:29:36;;;;;;;3.53;3.23;;;18.00;66.90;;;;;;5067989;28;43797;-70
2022/12/25 11:32:05;;;;;;;3.47;3.27;;;18.00;67.00;;;;;;5069032;27;45657;-73
2022/12/25 11:34:35;;;;;;;3.20;3.00;;;18.00;67.30;;;;;;5084971;27;44030;-70
2022/12/25 11:37:03;;;;;;;3.30;3.00;;;18.00;67.30;;;;;;5085338;27;43431;-71
2022/12/25 11:39:31;;;;;;;3.27;3.07;;;18.10;67.00;;;;;;5069663;27;43579;-73
2022/12/25 11:42:05;;;;;;;2.87;2.67;;;18.20;66.70;;;;;;5085241;27;43934;-72
2022/12/25 11:44:40;;;;;;;2.97;2.80;;;18.20;66.40;;;;;;5065342;28;44837;-71
2022/12/25 11:47:13;;;;;;;3.10;2.90;;;18.20;66.40;;;;;;5087023;27;43843;-72
2022/12/25 11:49:43;;;;;;;5.10;3.33;;;18.10;66.60;;;;;;5075873;27;43434;-72
2022/12/25 11:52:17;;;;;;;4.27;3.17;;;18.10;66.50;;;;;;5084023;27;43580;-70
2022/12/25 11:54:48;;;;;;;3.27;2.90;;;18.10;66.40;;;;;;5076642;27;43792;-71
2022/12/25 11:57:17;;;;;;;2.70;2.60;;;18.10;66.60;;;;;;5084106;27;43522;-71
2022/12/25 11:59:49;;;;;;;3.67;3.00;;;18.10;66.90;;;;;;5072257;27;43570;-72
2022/12/25 12:02:22;;;;;;;6.00;3.07;;;18.00;66.80;;;;;;5081546;27;43748;-71
2022/12/25 12:04:54;;;;;;;3.37;2.53;;;18.00;67.10;;;;;;5079966;27;44002;-71
2022/12/25 12:07:24;;;;;;;3.17;2.80;;;18.00;67.10;;;;;;5086469;27;43517;-71
2022/12/25 12:09:56;;;;;;;2.93;2.73;;;18.00;67.70;;;;;;5061495;27;43519;-71
2022/12/25 12:12:28;;;;;;;3.77;2.50;;;18.00;67.00;;;;;;5091626;27;43899;-71
2022/12/25 12:14:58;;;;;;;5.13;2.83;;;18.00;67.00;;;;;;5085644;27;43530;-72
2022/12/25 12:17:26;;;;;;;3.77;2.70;;;18.00;67.20;;;;;;5077883;27;43529;-71
2022/12/25 12:19:54;;;;;;;3.80;2.67;;;18.00;67.50;;;;;;5079987;27;43438;-70
2022/12/25 12:22:23;;;;;;;2.90;2.70;;;18.00;67.20;;;;;;5064101;27;45698;-71
2022/12/25 12:24:54;;;;;;;2.77;2.57;;;18.00;67.20;;;;;;5074558;27;43404;-70
2022/12/25 12:27:26;;;;;;;2.57;2.47;;;18.00;67.20;;;;;;5086191;27;43984;-71
2022/12/25 12:29:55;;;;;;;3.13;2.57;;;18.00;67.20;;;;;;5056554;28;43546;-72
2022/12/25 12:32:34;;;;;;;2.50;2.40;;;18.00;67.40;;;;;;5083037;27;44071;-72
2022/12/25 12:35:10;;;;;;;2.87;2.50;;;18.00;67.60;;;;;;5083666;27;43484;-71
2022/12/25 12:37:38;;;;;;;2.90;2.70;;;18.00;67.50;;;;;;5065171;27;43425;-71
2022/12/25 12:40:07;;;;;;;3.10;2.80;;;18.10;67.20;;;;;;5063362;28;43523;-72
2022/12/25 12:42:39;;;;;;;3.57;2.67;;;18.20;66.80;;;;;;5085241;27;43914;-72
2022/12/25 12:45:08;;;;;;;2.37;2.27;;;18.30;66.60;;;;;;5085849;27;43557;-71
2022/12/25 12:47:38;;;;;;;2.37;2.27;;;18.30;66.70;;;;;;5088375;27;43525;-72
2022/12/25 12:50:07;;;;;;;3.17;2.87;;;18.20;66.90;;;;;;5085066;27;44037;-71
2022/12/25 12:52:36;;;;;;;2.50;2.40;;;18.20;66.90;;;;;;5087905;27;43845;-71
2022/12/25 12:55:05;;;;;;;2.90;2.70;;;18.20;67.00;;;;;;5085601;27;44086;-72
2022/12/25 12:57:38;;;;;;;2.40;2.30;;;18.20;67.10;;;;;;5086820;27;43482;-72
2022/12/25 13:00:11;;;;;;;2.50;2.40;;;18.20;67.30;;;;;;5085113;27;43465;-71
2022/12/25 13:03:13;;;;;;;2.40;2.30;;;18.10;67.40;;;;;;5086617;27;45943;-71
2022/12/25 13:05:42;;;;;;;2.33;2.23;;;18.10;67.70;;;;;;5084622;27;44149;-72
2022/12/25 13:08:21;;;;;;;2.43;2.30;;;18.10;67.60;;;;;;5089615;27;43467;-72
2022/12/25 13:10:50;;;;;;;2.40;2.30;;;18.10;67.60;;;;;;5088452;27;43537;-72
2022/12/25 13:13:20;;;;;;;2.40;2.30;;;18.10;67.70;;;;;;5069355;27;45674;-70
2022/12/25 13:15:50;;;;;;;2.33;2.07;;;18.00;67.70;;;;;;5088109;27;43523;-71
2022/12/25 13:18:18;;;;;;;2.37;2.20;;;18.00;67.80;;;;;;5087431;27;43409;-72
2022/12/25 13:20:48;;;;;;;2.20;2.10;;;18.00;68.10;;;;;;5087629;27;43581;-71
2022/12/25 13:23:24;;;;;;;2.37;2.27;;;18.10;68.00;;;;;;5069889;27;45556;-71
2022/12/25 13:25:53;;;;;;;2.00;2.00;;;18.20;67.50;;;;;;5085933;27;43473;-72
2022/12/25 13:28:25;;;;;;;2.27;2.17;;;18.30;67.30;;;;;;5082280;27;44104;-71
2022/12/25 13:31:01;;;;;;;1.93;1.83;;;18.20;67.10;;;;;;5088753;27;43457;-71
2022/12/25 13:33:29;;;;;;;2.77;2.57;;;18.20;67.40;;;;;;5087950;27;43920;-71
2022/12/25 13:35:57;;;;;;;2.33;2.23;;;18.20;67.70;;;;;;5088271;27;44172;-72
2022/12/25 13:38:25;;;;;;;2.97;2.10;;;18.20;67.60;;;;;;5087031;27;43458;-71
2022/12/25 13:43:40;;;;;;;2.10;2.00;;;18.10;67.70;;;;;;5083192;27;44146;-71
2022/12/25 13:46:11;;;;;;;1.63;1.63;;;18.10;67.90;;;;;;5069321;27;44612;-72
2022/12/25 13:48:39;;;;;;;2.10;2.00;;;18.00;67.90;;;;;;5090122;27;43447;-72
2022/12/25 13:51:13;;;;;;;1.90;1.90;;;18.00;68.20;;;;;;5085824;27;43550;-72
2022/12/25 13:53:43;;;;;;;2.03;1.93;;;18.10;68.00;;;;;;5089413;27;44095;-71
2022/12/25 13:56:13;;;;;;;1.80;1.80;;;18.00;67.90;;;;;;5087944;27;44036;-73
2022/12/25 13:58:41;;;;;;;1.90;1.90;;;18.00;68.00;;;;;;5066297;27;44092;-72
2022/12/25 14:01:11;;;;;;;2.40;2.20;;;18.00;68.10;;;;;;5071432;28;43608;-72
2022/12/25 14:03:40;;;;;;;2.07;1.97;;;18.00;68.10;;;;;;5086418;27;43704;-73
2022/12/25 14:06:17;;;;;;;2.53;2.00;;;18.00;68.30;;;;;;5088311;28;44010;-71
2022/12/25 14:08:45;;;;;;;1.80;1.80;;;18.00;68.10;;;;;;5088272;28;44253;-71
2022/12/25 14:11:14;;;;;;;1.80;1.70;;;18.00;68.00;;;;;;5065848;27;45685;-71
2022/12/25 14:13:43;;;;;;;1.97;1.90;;;18.00;68.10;;;;;;5083367;27;44343;-71
2022/12/25 14:16:12;;;;;;;1.83;1.83;;;18.00;68.10;;;;;;5087900;28;44073;-71
2022/12/25 14:18:50;;;;;;;2.20;2.10;;;17.90;68.10;;;;;;5088357;27;43580;-71
2022/12/25 14:21:23;;;;;;;1.77;1.70;;;18.00;68.20;;;;;;5086877;27;44048;-73
2022/12/25 14:23:51;;;;;;;1.97;1.97;;;18.10;67.90;;;;;;5084752;27;43845;-73
2022/12/25 14:26:20;;;;;;;2.10;2.00;;;18.20;67.40;;;;;;5067665;27;45123;-74
2022/12/25 14:28:48;;;;;;;1.60;1.60;;;18.30;67.10;;;;;;5067100;27;43507;-72
2022/12/25 14:31:17;;;;;;;1.70;1.70;;;18.20;66.90;;;;;;5067634;27;43565;-74
2022/12/25 14:33:45;;;;;;;1.57;1.57;;;18.20;67.10;;;;;;5086786;27;44123;-72
2022/12/25 14:36:13;;;;;;;2.17;2.07;;;18.20;67.20;;;;;;5084985;27;43530;-71
2022/12/25 14:38:42;;;;;;;1.80;1.70;;;18.20;67.10;;;;;;5080356;27;43934;-70